Time;durP1;ratioP1;P1;durP2;ratioP2;P2;SDS_P1;SDS_P2;PMS_P1;PMS_P2;Temp;Humidity;BMP_temperature;BMP_pressure;BME280_temperature;BME280_humidity;BME280_pressure;Samples;Min_cycle;Max_cycle;Signal;HPM_P1;HPM_P2
2023/04/21 00:00:59;;;;;;;4.53;4.10;;;;;;;11.51;100.00;97733.03;5033620;28;20178;-63
2023/04/21 00:03:27;;;;;;;5.28;4.78;;;;;;;11.30;100.00;97684.75;5033628;28;20663;-62
2023/04/21 00:05:55;;;;;;;4.63;4.20;;;;;;;11.58;100.00;97726.44;5033553;28;20177;-62
2023/04/21 00:08:20;;;;;;;6.18;4.18;;;;;;;11.10;100.00;97650.16;5033497;28;20182;-63
2023/04/21 00:10:46;;;;;;;4.80;4.40;;;;;;;11.15;100.00;97649.81;5033448;28;20198;-62
2023/04/21 00:13:12;;;;;;;4.82;4.03;;;;;;;11.45;100.00;97720.56;5033398;28;20210;-63
2023/04/21 00:15:37;;;;;;;4.82;4.38;;;;;;;11.04;100.00;97667.97;5033312;28;20170;-62
2023/04/21 00:18:03;;;;;;;4.53;4.13;;;;;;;11.16;100.00;97651.44;5033314;28;20647;-63
2023/04/21 00:20:30;;;;;;;6.32;4.78;;;;;;;11.13;100.00;97647.31;5033304;28;20192;-63
2023/04/21 00:22:56;;;;;;;4.63;4.32;;;;;;;11.51;100.00;97717.50;5033179;28;20308;-63
2023/04/21 00:25:23;;;;;;;4.85;4.43;;;;;;;10.98;100.00;97640.81;5032867;28;20198;-62
2023/04/21 00:27:48;;;;;;;6.25;4.82;;;;;;;11.44;100.00;97710.34;5033162;28;20193;-62
2023/04/21 00:30:14;;;;;;;4.47;4.07;;;;;;;11.61;100.00;97725.34;5033093;28;20171;-62
2023/04/21 00:32:40;;;;;;;5.22;4.78;;;;;;;11.71;100.00;97715.84;5033014;28;20211;-62
2023/04/21 00:35:06;;;;;;;5.78;4.97;;;;;;;11.86;100.00;97720.59;5033016;28;20548;-63
2023/04/21 00:37:31;;;;;;;5.10;4.60;;;;;;;11.69;100.00;97692.66;5032900;28;20205;-62
2023/04/21 00:39:59;;;;;;;5.10;4.32;;;;;;;11.76;100.00;97719.72;5050289;28;20185;-63
2023/04/21 00:42:25;;;;;;;4.60;4.20;;;;;;;11.44;100.00;97677.50;5050421;28;20197;-62
2023/04/21 00:44:51;;;;;;;5.00;4.55;;;;;;;11.24;100.00;97655.03;5050260;28;20272;-62
2023/04/21 00:47:17;;;;;;;5.85;4.65;;;;;;;11.21;100.00;97628.56;5050289;28;20597;-62
2023/04/21 00:49:42;;;;;;;6.07;4.95;;;;;;;11.79;100.00;97698.69;5050255;28;20251;-63
2023/04/21 00:52:08;;;;;;;5.60;5.10;;;;;;;11.66;100.00;97692.91;5050271;28;20622;-62
2023/04/21 00:54:34;;;;;;;6.35;4.57;;;;;;;11.57;100.00;97656.56;5050263;28;20193;-62
2023/04/21 00:57:00;;;;;;;4.93;4.53;;;;;;;11.34;100.00;97613.66;5049947;28;20201;-63
2023/04/21 00:59:26;;;;;;;5.20;4.70;;;;;;;11.48;100.00;97610.69;5050168;28;20185;-62
2023/04/21 01:01:52;;;;;;;5.20;4.70;;;;;;;12.19;98.36;97699.53;5050152;28;20178;-62
2023/04/21 01:04:20;;;;;;;5.68;4.13;;;;;;;11.80;94.45;97608.81;5050075;28;20177;-62
2023/04/21 01:06:45;;;;;;;4.70;4.30;;;;;;;11.89;95.24;97652.06;5049991;28;20196;-62
2023/04/21 01:09:11;;;;;;;4.50;4.20;;;;;;;11.88;89.52;97650.44;5050042;28;20185;-62
2023/04/21 01:11:37;;;;;;;5.22;4.65;;;;;;;12.08;88.41;97668.50;5035859;28;20190;-62
2023/04/21 01:14:04;;;;;;;4.40;4.00;;;;;;;12.32;89.39;97697.50;5032444;28;20174;-62
2023/04/21 01:16:31;;;;;;;4.85;4.45;;;;;;;11.98;88.57;97631.41;5032212;28;20288;-62
2023/04/21 01:18:57;;;;;;;4.25;3.88;;;;;;;11.91;86.83;97593.97;5032017;28;20632;-62
2023/04/21 01:21:23;;;;;;;5.43;4.35;;;;;;;12.50;87.19;97662.22;5032226;28;20297;-62
2023/04/21 01:23:49;;;;;;;4.57;4.18;;;;;;;12.74;86.66;97693.78;5032244;28;20269;-62
2023/04/21 01:26:18;;;;;;;4.57;4.25;;;;;;;12.66;86.85;97693.63;5032253;28;20299;-62
2023/04/21 01:28:46;;;;;;;4.90;4.50;;;;;;;12.73;89.29;97706.88;5032212;28;20650;-63
2023/04/21 01:31:12;;;;;;;4.80;4.40;;;;;;;12.27;89.96;97624.50;5032202;28;20652;-62
2023/04/21 01:33:37;;;;;;;6.15;4.68;;;;;;;12.68;90.84;97714.25;5032211;28;20171;-62
2023/04/21 01:36:03;;;;;;;5.72;5.15;;;;;;;12.42;92.85;97700.16;5049437;28;20228;-63
2023/04/21 01:38:28;;;;;;;4.60;4.20;;;;;;;12.00;94.46;97664.94;5049639;28;20363;-63
2023/04/21 01:40:54;;;;;;;5.68;4.97;;;;;;;11.78;95.15;97623.69;5049670;28;20182;-63
2023/04/21 01:43:22;;;;;;;5.88;5.38;;;;;;;11.74;95.06;97622.31;5049637;28;20634;-63
2023/04/21 01:45:48;;;;;;;6.47;5.00;;;;;;;11.58;96.55;97627.97;5049451;28;20771;-63
2023/04/21 01:48:13;;;;;;;6.70;6.00;;;;;;;11.47;99.47;97646.16;5049546;28;20181;-62
2023/04/21 01:50:39;;;;;;;7.35;6.25;;;;;;;11.43;100.00;97669.88;5049560;28;20188;-63
2023/04/21 01:53:05;;;;;;;10.50;6.47;;;;;;;11.46;100.00;97695.50;5049567;28;20711;-62
2023/04/21 01:55:31;;;;;;;7.97;6.93;;;;;;;11.29;100.00;97662.41;5049413;28;20281;-62
2023/04/21 01:57:58;;;;;;;6.88;6.18;;;;;;;10.98;100.00;97627.06;5049182;28;20242;-63
2023/04/21 02:00:23;;;;;;;6.78;6.07;;;;;;;11.26;100.00;97652.31;5052679;28;20222;-62
2023/04/21 02:02:49;;;;;;;6.63;5.90;;;;;;;11.11;100.00;97617.34;5053414;28;20214;-62
2023/04/21 02:05:14;;;;;;;8.07;5.68;;;;;;;11.21;100.00;97631.16;5053373;28;20272;-63
2023/04/21 02:07:39;;;;;;;6.55;5.95;;;;;;;11.78;100.00;97696.25;5038111;28;20213;-62
2023/04/21 02:10:05;;;;;;;8.43;6.07;;;;;;;11.06;100.00;97609.13;5033389;28;20183;-62
2023/04/21 02:12:31;;;;;;;7.63;5.65;;;;;;;11.16;100.00;97641.88;5033309;28;20190;-62
2023/04/21 02:14:56;;;;;;;5.78;5.28;;;;;;;11.13;100.00;97610.25;5033320;28;20183;-63
2023/04/21 02:17:21;;;;;;;7.30;5.70;;;;;;;11.16;100.00;97613.41;5034668;28;20214;-62
2023/04/21 02:19:47;;;;;;;5.38;4.88;;;;;;;11.66;100.00;97702.44;5053037;28;20195;-63
2023/04/21 02:22:12;;;;;;;6.60;5.55;;;;;;;11.20;100.00;97630.34;5053061;28;20189;-63
2023/04/21 02:24:38;;;;;;;6.20;5.55;;;;;;;11.42;100.00;97707.06;5053049;28;20196;-62
2023/04/21 02:27:04;;;;;;;6.05;5.45;;;;;;;11.24;100.00;97687.88;5053317;28;20213;-63
2023/04/21 02:29:29;;;;;;;5.90;5.30;;;;;;;11.06;100.00;97703.16;5052733;28;20721;-63
2023/04/21 02:31:55;;;;;;;7.05;6.38;;;;;;;11.10;100.00;97729.59;5052876;28;20286;-63
2023/04/21 02:34:21;;;;;;;7.82;6.35;;;;;;;11.11;100.00;97713.13;5052798;28;20223;-63
2023/04/21 02:36:46;;;;;;;7.18;6.45;;;;;;;11.32;100.00;97703.59;5052722;28;20604;-63
2023/04/21 02:39:12;;;;;;;8.68;7.65;;;;;;;11.05;100.00;97644.56;5052682;28;20182;-63
2023/04/21 02:41:38;;;;;;;9.35;7.30;;;;;;;11.31;100.00;97673.44;5052700;28;20267;-63
2023/04/21 02:44:03;;;;;;;8.90;6.53;;;;;;;10.95;100.00;97651.44;5052660;28;20186;-62
2023/04/21 02:46:29;;;;;;;7.90;7.10;;;;;;;11.50;100.00;97715.03;5052558;28;20190;-63
2023/04/21 02:48:55;;;;;;;8.60;7.70;;;;;;;11.56;100.00;97704.16;5052498;28;20229;-63
2023/04/21 02:51:20;;;;;;;8.07;7.28;;;;;;;11.55;100.00;97720.66;5037710;28;20218;-63
2023/04/21 02:53:46;;;;;;;7.70;6.97;;;;;;;11.16;100.00;97659.19;5032568;28;20186;-63
2023/04/21 02:56:11;;;;;;;9.18;7.07;;;;;;;11.23;100.00;97675.88;5032635;28;20297;-63
2023/04/21 02:58:37;;;;;;;8.50;7.32;;;;;;;11.19;100.00;97674.47;5032260;28;20624;-63
2023/04/21 03:01:04;;;;;;;8.55;7.20;;;;;;;11.24;100.00;97701.63;5034175;28;20186;-63
2023/04/21 03:03:30;;;;;;;8.75;7.43;;;;;;;10.80;100.00;97657.03;5034724;28;20181;-62
2023/04/21 03:05:57;;;;;;;11.18;6.97;;;;;;;10.79;100.00;97671.75;5034701;28;20663;-63
2023/04/21 03:08:23;;;;;;;9.05;7.45;;;;;;;10.62;100.00;97708.50;5034626;28;20179;-63
2023/04/21 03:10:48;;;;;;;10.05;7.40;;;;;;;10.48;100.00;97701.00;5033435;28;20546;-64
2023/04/21 03:13:16;;;;;;;7.57;6.78;;;;;;;10.41;100.00;97693.88;5012161;28;20758;-63
2023/04/21 03:15:41;;;;;;;8.30;6.65;;;;;;;10.64;100.00;97716.97;5012339;28;20285;-65
2023/04/21 03:18:07;;;;;;;7.40;6.63;;;;;;;10.45;100.00;97711.59;5051799;28;20198;-62
2023/04/21 03:20:32;;;;;;;7.25;5.70;;;;;;;10.22;100.00;97655.69;5051906;28;20188;-62
2023/04/21 03:22:57;;;;;;;6.78;6.18;;;;;;;10.29;100.00;97649.13;5051865;28;20654;-61
2023/04/21 03:25:23;;;;;;;8.60;6.55;;;;;;;10.74;100.00;97709.28;5051830;28;20228;-62
2023/04/21 03:27:49;;;;;;;6.68;6.05;;;;;;;10.66;100.00;97703.88;5051828;28;20225;-62
2023/04/21 03:30:14;;;;;;;7.97;6.30;;;;;;;10.38;100.00;97638.03;5051707;28;20178;-62
2023/04/21 03:32:40;;;;;;;7.75;5.93;;;;;;;10.30;100.00;97614.56;5051674;28;20198;-62
2023/04/21 03:35:05;;;;;;;6.80;5.63;;;;;;;10.62;100.00;97668.88;5051618;28;20182;-62
2023/04/21 03:37:31;;;;;;;7.38;5.80;;;;;;;10.63;100.00;97657.59;5051515;28;20711;-62
2023/04/21 03:39:56;;;;;;;7.70;6.38;;;;;;;10.57;100.00;97642.56;5051570;28;20193;-62
2023/04/21 03:42:22;;;;;;;8.60;6.10;;;;;;;10.89;100.00;97677.81;5051573;28;20181;-63
2023/04/21 03:44:47;;;;;;;6.68;6.07;;;;;;;10.87;100.00;97707.34;5051521;28;20655;-62
2023/04/21 03:47:12;;;;;;;7.65;6.90;;;;;;;10.46;100.00;97651.16;5051452;28;20288;-62
2023/04/21 03:49:38;;;;;;;7.10;6.40;;;;;;;10.75;100.00;97685.06;5037187;28;20277;-62
2023/04/21 03:52:04;;;;;;;7.45;6.75;;;;;;;11.06;100.00;97741.16;5033897;28;20179;-62
2023/04/21 03:54:29;;;;;;;6.85;6.15;;;;;;;10.55;100.00;97657.38;5033460;28;20190;-62
2023/04/21 03:56:55;;;;;;;8.05;6.00;;;;;;;11.09;100.00;97746.09;5033997;28;20199;-62
2023/04/21 03:59:20;;;;;;;7.45;6.75;;;;;;;11.13;100.00;97745.72;5033960;28;20560;-62
2023/04/21 04:01:45;;;;;;;11.18;6.85;;;;;;;10.62;100.00;97661.13;5033638;28;20220;-62
2023/04/21 04:04:11;;;;;;;7.35;6.43;;;;;;;10.98;100.00;97720.25;5033643;28;20166;-62
2023/04/21 04:06:36;;;;;;;6.57;5.88;;;;;;;10.97;100.00;97708.25;5033556;28;20223;-62
2023/04/21 04:09:03;;;;;;;8.38;7.13;;;;;;;11.25;100.00;97757.66;5033223;28;20265;-62
2023/04/21 04:11:29;;;;;;;8.07;6.82;;;;;;;11.13;100.00;97713.81;5033511;28;20174;-63
2023/04/21 04:13:55;;;;;;;9.80;7.65;;;;;;;11.29;100.00;97740.09;5033456;28;20174;-63
2023/04/21 04:16:20;;;;;;;8.52;7.30;;;;;;;11.04;100.00;97699.03;5050694;28;20602;-63
2023/04/21 04:18:46;;;;;;;13.88;8.63;;;;;;;10.86;100.00;97669.50;5050859;28;20190;-63
2023/04/21 04:21:11;;;;;;;8.45;7.53;;;;;;;11.18;100.00;97738.41;5050750;28;20182;-62
2023/04/21 04:23:36;;;;;;;10.38;8.38;;;;;;;11.06;100.00;97692.78;5050534;28;20206;-62
2023/04/21 04:26:04;;;;;;;8.02;5.88;;;;;;;11.62;100.00;97771.84;5050699;28;20649;-63
2023/04/21 04:28:30;;;;;;;5.53;5.03;;;;;;;11.41;100.00;97726.13;5050687;28;20215;-63
2023/04/21 04:30:55;;;;;;;6.93;6.15;;;;;;;11.74;100.00;97777.78;5050571;28;20194;-63
2023/04/21 04:33:21;;;;;;;6.00;5.40;;;;;;;11.29;100.00;97677.94;5050546;28;20220;-63
2023/04/21 04:35:46;;;;;;;5.47;4.95;;;;;;;11.65;100.00;97737.09;5050448;28;20688;-63
2023/04/21 04:38:13;;;;;;;6.32;4.80;;;;;;;11.48;100.00;97688.41;5050784;28;20177;-63
2023/04/21 04:40:39;;;;;;;5.70;5.20;;;;;;;12.07;100.00;97772.38;5050361;28;20181;-63
2023/04/21 04:43:04;;;;;;;6.18;5.10;;;;;;;12.00;100.00;97763.47;5050413;28;20193;-63
2023/04/21 04:45:31;;;;;;;7.50;5.00;;;;;;;11.58;100.00;97674.63;5050380;28;20667;-63
2023/04/21 04:47:57;;;;;;;4.88;4.47;;;;;;;12.11;95.67;97734.84;5036689;28;20190;-63
2023/04/21 04:50:23;;;;;;;4.95;4.55;;;;;;;12.06;95.74;97716.28;5032757;28;20174;-63
2023/04/21 04:52:49;;;;;;;4.95;4.45;;;;;;;12.15;95.38;97724.09;5032688;28;20635;-63
2023/04/21 04:55:14;;;;;;;4.55;4.18;;;;;;;12.16;94.14;97769.00;5032685;28;20174;-61
2023/04/21 04:57:40;;;;;;;6.75;5.05;;;;;;;12.10;93.22;97734.06;5032527;28;20210;-60
2023/04/21 05:00:10;;;;;;;4.78;4.38;;;;;;;11.78;93.33;97681.50;5032613;28;20660;-62
2023/04/21 05:02:36;;;;;;;5.38;4.22;;;;;;;11.95;91.25;97696.44;5032542;28;20182;-62
2023/04/21 05:05:03;;;;;;;4.75;4.28;;;;;;;12.46;90.78;97767.22;5032557;28;20233;-61
2023/04/21 05:07:28;;;;;;;4.50;4.20;;;;;;;12.29;89.78;97720.31;5032453;28;20186;-62
2023/04/21 05:09:54;;;;;;;4.47;4.15;;;;;;;12.31;90.06;97736.56;5032412;28;20637;-62
2023/04/21 05:12:19;;;;;;;5.85;4.47;;;;;;;12.30;89.60;97714.16;5032431;28;20174;-62
2023/04/21 05:14:45;;;;;;;4.53;4.22;;;;;;;12.23;88.64;97681.94;5032386;28;20174;-63
2023/04/21 05:17:10;;;;;;;9.93;4.20;;;;;;;12.09;90.01;97690.09;5032025;28;20198;-63
2023/04/21 05:19:36;;;;;;;5.00;4.55;;;;;;;12.08;91.15;97722.16;5032166;28;20260;-62
2023/04/21 05:22:02;;;;;;;5.30;4.57;;;;;;;12.15;92.51;97737.06;5032201;28;20174;-62
2023/04/21 05:24:28;;;;;;;4.75;4.35;;;;;;;12.18;91.15;97725.59;5032300;28;20268;-63
2023/04/21 05:26:53;;;;;;;5.32;4.45;;;;;;;12.21;90.13;97707.19;5032523;28;20177;-62
2023/04/21 05:29:18;;;;;;;5.88;4.65;;;;;;;12.79;90.25;97768.66;5032255;28;20652;-62
2023/04/21 05:31:44;;;;;;;4.68;4.28;;;;;;;12.40;88.37;97679.53;5030348;28;20186;-63
2023/04/21 05:34:09;;;;;;;5.35;4.80;;;;;;;12.54;88.17;97678.31;5048676;28;20209;-63
2023/04/21 05:36:35;;;;;;;7.10;4.80;;;;;;;13.22;86.91;97758.72;5049400;28;20209;-63
2023/04/21 05:39:00;;;;;;;4.85;4.45;;;;;;;13.19;84.85;97715.66;5049437;28;20177;-63
2023/04/21 05:41:26;;;;;;;5.35;4.53;;;;;;;13.37;82.92;97734.78;5049382;28;20706;-63
2023/04/21 05:43:51;;;;;;;6.43;4.97;;;;;;;13.10;82.17;97684.50;5049633;28;20205;-63
2023/04/21 05:46:16;;;;;;;8.13;4.97;;;;;;;13.62;81.99;97756.78;5049578;28;20217;-63
2023/04/21 05:48:42;;;;;;;4.60;4.00;;;;;;;13.41;80.26;97678.19;5049057;28;20182;-63
2023/04/21 05:51:09;;;;;;;6.38;4.03;;;;;;;13.92;75.30;97730.56;5048639;28;20236;-63
2023/04/21 05:53:35;;;;;;;5.18;4.68;;;;;;;13.67;75.04;97658.41;5048319;28;20186;-63
2023/04/21 05:56:00;;;;;;;5.38;3.78;;;;;;;14.59;69.18;97759.75;5009627;28;20195;-63
2023/04/21 05:58:26;;;;;;;4.55;4.15;;;;;;;14.81;68.58;97764.56;5009572;28;20253;-61
2023/04/21 06:00:51;;;;;;;5.13;4.00;;;;;;;15.04;66.68;97768.38;5009633;28;20195;-62
2023/04/21 06:03:16;;;;;;;5.47;4.13;;;;;;;14.92;66.62;97733.09;5024053;28;20218;-62
2023/04/21 06:05:42;;;;;;;5.35;4.03;;;;;;;14.87;64.97;97711.88;5029243;28;20189;-62
2023/04/21 06:08:07;;;;;;;3.90;3.60;;;;;;;15.40;65.54;97780.47;5029538;28;20640;-62
2023/04/21 06:10:33;;;;;;;4.38;3.92;;;;;;;15.24;64.57;97743.78;5029420;28;20191;-62
2023/04/21 06:12:58;;;;;;;3.42;3.17;;;;;;;15.59;62.46;97785.50;4990034;28;20667;-62
2023/04/21 06:15:23;;;;;;;3.47;3.17;;;;;;;15.07;61.65;97695.09;4990005;28;20280;-63
2023/04/21 06:17:53;;;;;;;4.80;3.95;;;;;;;15.62;62.26;97770.38;4988228;28;20645;-63
2023/04/21 06:20:19;;;;;;;3.47;3.17;;;;;;;15.20;61.61;97691.16;4989005;28;20318;-63
2023/04/21 06:22:44;;;;;;;4.03;3.70;;;;;;;15.37;60.65;97697.34;4989989;28;20275;-63
2023/04/21 06:25:10;;;;;;;5.07;3.97;;;;;;;15.85;58.64;97765.50;4989952;28;20275;-62
2023/04/21 06:27:35;;;;;;;3.92;3.10;;;;;;;15.88;58.87;97765.19;5004778;28;20230;-62
2023/04/21 06:30:00;;;;;;;4.05;3.50;;;;;;;15.53;58.33;97687.84;5009821;28;20183;-63
2023/04/21 06:32:26;;;;;;;5.32;3.67;;;;;;;15.66;58.71;97697.84;5009533;28;20249;-62
2023/04/21 06:34:51;;;;;;;3.60;3.40;;;;;;;15.93;56.52;97718.56;5009563;28;20179;-62
2023/04/21 06:37:17;;;;;;;4.10;3.53;;;;;;;16.13;56.74;97746.06;5009364;28;20709;-62
2023/04/21 06:39:42;;;;;;;5.78;4.47;;;;;;;16.47;55.72;97789.53;5009525;28;20179;-62
2023/04/21 06:42:10;;;;;;;3.35;3.13;;;;;;;16.48;54.70;97780.72;5009532;28;20187;-62
2023/04/21 06:44:37;;;;;;;3.42;3.03;;;;;;;16.58;53.99;97767.53;5009946;28;20701;-62
2023/04/21 06:47:02;;;;;;;5.90;4.15;;;;;;;16.34;54.18;97699.50;5012946;28;20193;-62
2023/04/21 06:49:28;;;;;;;5.05;3.65;;;;;;;16.28;54.35;97692.31;5018161;28;20274;-62
2023/04/21 06:51:53;;;;;;;4.10;3.75;;;;;;;16.80;53.51;97761.72;5054893;28;20632;-63
2023/04/21 06:54:19;;;;;;;4.22;3.40;;;;;;;16.82;52.67;97747.53;5054883;28;20256;-63
2023/04/21 06:56:44;;;;;;;4.70;3.40;;;;;;;16.89;53.04;97763.38;5054745;28;20615;-63
2023/04/21 06:59:09;;;;;;;3.67;3.47;;;;;;;16.65;52.72;97719.72;5055004;28;20189;-63
2023/04/21 07:01:35;;;;;;;3.47;3.10;;;;;;;16.79;51.86;97726.13;5054757;28;20205;-63
2023/04/21 07:04:00;;;;;;;4.40;3.63;;;;;;;16.61;51.23;97681.03;5054639;28;20169;-63
2023/04/21 07:06:26;;;;;;;4.00;3.58;;;;;;;17.14;51.86;97754.63;5054590;28;20239;-63
2023/04/21 07:08:51;;;;;;;3.95;3.60;;;;;;;16.88;52.06;97701.63;5054653;28;20644;-63
2023/04/21 07:11:17;;;;;;;5.07;3.42;;;;;;;17.24;51.50;97743.00;5054587;28;20174;-63
2023/04/21 07:13:42;;;;;;;4.30;3.60;;;;;;;17.34;50.13;97753.31;5054543;28;20553;-62
2023/04/21 07:16:07;;;;;;;6.18;3.85;;;;;;;17.44;48.62;97752.19;5054113;28;20173;-63
2023/04/21 07:18:33;;;;;;;3.85;3.45;;;;;;;17.34;50.17;97721.94;5051872;28;20193;-63
2023/04/21 07:20:59;;;;;;;4.07;3.50;;;;;;;17.00;48.69;97667.19;5051978;28;20273;-62
2023/04/21 07:23:25;;;;;;;3.55;3.25;;;;;;;17.39;48.83;97719.69;5051979;28;20185;-63
2023/04/21 07:25:50;;;;;;;4.95;3.38;;;;;;;17.18;48.40;97669.63;5052003;28;20174;-63
2023/04/21 07:28:16;;;;;;;3.95;3.65;;;;;;;17.29;48.92;97671.91;5051801;28;20692;-63
2023/04/21 07:30:41;;;;;;;3.17;2.97;;;;;;;17.81;46.40;97751.69;5051857;28;20177;-62
2023/04/21 07:33:07;;;;;;;6.50;3.65;;;;;;;17.77;47.30;97745.97;5051769;28;20195;-62
2023/04/21 07:35:33;;;;;;;5.07;3.47;;;;;;;17.70;46.25;97749.41;5051723;28;20184;-63
2023/04/21 07:37:58;;;;;;;5.78;3.45;;;;;;;17.32;47.27;97674.22;5051653;28;20213;-63
2023/04/21 07:40:24;;;;;;;3.70;3.40;;;;;;;17.88;47.85;97758.72;5051942;28;20177;-63
2023/04/21 07:42:49;;;;;;;4.47;2.97;;;;;;;17.96;47.70;97747.41;5051430;28;20302;-62
2023/04/21 07:45:15;;;;;;;6.22;3.67;;;;;;;17.96;47.22;97750.03;5051040;28;20401;-63
2023/04/21 07:47:40;;;;;;;7.88;3.70;;;;;;;17.98;47.29;97748.06;5051430;28;20242;-63
2023/04/21 07:50:06;;;;;;;4.05;3.38;;;;;;;18.06;47.13;97746.25;5052898;28;20643;-63
2023/04/21 07:52:32;;;;;;;4.88;3.60;;;;;;;17.81;46.37;97694.94;5053739;28;20185;-63
2023/04/21 07:54:57;;;;;;;3.88;3.30;;;;;;;17.90;46.81;97707.00;5053524;28;20178;-63
2023/04/21 07:57:23;;;;;;;4.72;3.53;;;;;;;17.77;47.15;97677.13;5052683;28;20209;-62
2023/04/21 07:59:49;;;;;;;3.30;2.83;;;;;;;18.04;46.79;97710.75;5053448;28;20170;-63
2023/04/21 08:02:19;;;;;;;3.40;3.10;;;;;;;18.09;45.90;97708.44;5053346;28;20176;-63
2023/04/21 08:04:45;;;;;;;4.22;3.40;;;;;;;18.27;45.64;97729.97;5051245;28;20178;-63
2023/04/21 08:07:12;;;;;;;3.03;2.83;;;;;;;18.40;45.35;97743.38;5053254;28;20231;-63
2023/04/21 08:09:37;;;;;;;4.30;3.45;;;;;;;18.33;45.88;97737.19;5053155;28;20201;-62
2023/04/21 08:12:03;;;;;;;3.40;3.20;;;;;;;18.23;46.00;97705.09;5053201;28;20283;-63
2023/04/21 08:14:28;;;;;;;3.20;2.90;;;;;;;18.43;45.31;97722.09;5053182;28;20701;-63
2023/04/21 08:16:54;;;;;;;5.57;2.88;;;;;;;18.41;43.34;97713.59;5053019;28;20197;-63
2023/04/21 08:19:19;;;;;;;3.72;3.17;;;;;;;18.66;43.53;97749.97;5053048;28;20223;-63
2023/04/21 08:21:45;;;;;;;3.83;3.35;;;;;;;18.60;44.60;97739.38;5053089;28;20181;-63
2023/04/21 08:24:11;;;;;;;5.25;3.22;;;;;;;18.57;43.83;97713.50;5053080;28;20256;-63
2023/04/21 08:26:36;;;;;;;5.72;3.20;;;;;;;18.45;43.73;97679.03;5053113;28;20230;-63
2023/04/21 08:29:02;;;;;;;3.42;2.75;;;;;;;18.93;42.61;97743.44;5053062;28;20173;-63
2023/04/21 08:31:28;;;;;;;3.25;3.05;;;;;;;19.02;42.38;97766.00;5053047;28;20170;-63
2023/04/21 08:33:53;;;;;;;3.33;3.03;;;;;;;18.83;42.56;97740.25;5052968;28;20660;-63
2023/04/21 08:36:19;;;;;;;3.42;2.92;;;;;;;18.80;41.93;97716.97;5052808;28;20193;-63
2023/04/21 08:38:45;;;;;;;4.07;2.90;;;;;;;18.87;41.77;97725.78;5052834;28;20181;-63
2023/04/21 08:41:11;;;;;;;2.72;2.58;;;;;;;18.93;40.58;97719.84;5052532;28;20563;-63
2023/04/21 08:43:40;;;;;;;3.35;2.80;;;;;;;19.08;40.75;97741.72;5052630;28;20173;-63
2023/04/21 08:46:07;;;;;;;5.13;2.90;;;;;;;19.07;40.52;97726.97;5052468;28;20281;-63
2023/04/21 08:48:37;;;;;;;2.83;2.63;;;;;;;19.28;41.27;97740.28;5052405;28;20176;-63
2023/04/21 08:51:05;;;;;;;2.60;2.40;;;;;;;19.16;41.28;97713.63;5050282;28;20538;-63
2023/04/21 08:53:31;;;;;;;2.90;2.15;;;;;;;18.91;39.37;97669.41;5029901;28;20193;-63
2023/04/21 08:55:56;;;;;;;3.50;2.45;;;;;;;19.20;40.09;97716.72;5029872;28;20682;-63
2023/04/21 08:58:22;;;;;;;3.33;2.47;;;;;;;19.16;39.96;97695.28;5029816;28;20202;-63
2023/04/21 09:00:49;;;;;;;6.70;2.40;;;;;;;19.53;39.96;97739.13;5030010;28;20545;-63
2023/04/21 09:03:21;;;;;;;4.93;2.88;;;;;;;19.59;39.17;97741.84;5030055;28;20649;-63
2023/04/21 09:05:56;;;;;;;2.45;2.25;;;;;;;19.35;38.59;97720.25;5030119;28;20197;-63
2023/04/21 09:08:21;;;;;;;2.55;2.35;;;;;;;19.62;38.40;97745.91;5029335;28;20177;-63
2023/04/21 09:10:49;;;;;;;2.10;2.00;;;;;;;19.32;38.67;97683.88;5030068;28;20199;-63
2023/04/21 09:13:16;;;;;;;2.63;2.35;;;;;;;19.63;38.36;97713.44;5030080;28;20292;-63
2023/04/21 09:15:43;;;;;;;3.63;2.58;;;;;;;19.32;39.42;97657.63;5030062;28;20208;-63
2023/04/21 09:18:17;;;;;;;3.10;2.78;;;;;;;19.38;39.88;97646.41;5030024;28;20209;-63
2023/04/21 09:20:44;;;;;;;5.85;2.70;;;;;;;19.71;40.91;97684.50;5029923;28;20584;-63
2023/04/21 09:23:10;;;;;;;3.72;3.42;;;;;;;19.51;43.23;97644.00;5028407;28;20181;-63
2023/04/21 09:25:40;;;;;;;3.60;3.10;;;;;;;19.78;42.96;97670.47;5029419;28;20749;-63
2023/04/21 09:28:10;;;;;;;3.92;3.30;;;;;;;19.77;43.13;97653.06;5009716;28;20269;-63
2023/04/21 09:30:38;;;;;;;4.22;3.38;;;;;;;19.76;43.20;97625.19;5016720;28;20190;-63
2023/04/21 09:33:04;;;;;;;4.53;3.35;;;;;;;20.06;42.73;97683.78;5028478;28;20297;-63
2023/04/21 09:35:35;;;;;;;3.28;3.00;;;;;;;20.00;41.87;97668.75;5029779;28;20267;-63
2023/04/21 09:38:02;;;;;;;3.72;3.00;;;;;;;20.28;40.55;97714.44;5029689;28;20213;-63
2023/04/21 09:40:31;;;;;;;3.17;2.92;;;;;;;19.99;40.20;97661.88;5029754;28;20182;-63
2023/04/21 09:42:57;;;;;;;3.70;3.40;;;;;;;20.22;41.92;97673.94;5029736;28;20193;-63
2023/04/21 09:45:26;;;;;;;5.15;3.05;;;;;;;20.38;42.14;97704.44;5029750;28;20192;-63
2023/04/21 09:48:00;;;;;;;3.38;3.15;;;;;;;20.00;43.24;97621.47;5029643;28;20202;-63
2023/04/21 09:50:27;;;;;;;3.97;3.17;;;;;;;20.56;43.07;97696.97;5009818;28;20591;-63
2023/04/21 09:52:54;;;;;;;4.53;3.20;;;;;;;20.43;41.48;97666.13;5009734;28;20245;-63
2023/04/21 09:55:28;;;;;;;3.60;2.90;;;;;;;20.34;40.45;97638.31;5008261;28;20194;-63
2023/04/21 09:57:59;;;;;;;3.30;3.10;;;;;;;20.44;40.85;97656.41;5009887;28;20232;-63
2023/04/21 10:00:27;;;;;;;4.60;3.45;;;;;;;20.45;42.02;97658.06;5049477;28;20263;-63
2023/04/21 10:02:54;;;;;;;3.15;2.95;;;;;;;20.59;42.56;97675.59;5049454;28;20177;-63
2023/04/21 10:05:19;;;;;;;3.75;3.38;;;;;;;20.71;42.73;97684.63;5049471;28;20196;-63
2023/04/21 10:07:46;;;;;;;3.72;3.13;;;;;;;20.86;41.94;97683.56;5049413;28;20174;-63
2023/04/21 10:10:23;;;;;;;5.25;3.03;;;;;;;20.40;41.68;97608.66;5049403;28;20243;-63
2023/04/21 10:12:50;;;;;;;3.85;3.30;;;;;;;20.97;42.56;97684.94;5049385;28;20264;-63
2023/04/21 10:15:38;;;;;;;4.03;3.17;;;;;;;20.74;42.62;97621.97;5049316;28;20231;-63
2023/04/21 10:18:22;;;;;;;3.28;3.08;;;;;;;20.96;41.79;97635.94;5048901;28;20699;-63
2023/04/21 10:20:56;;;;;;;5.82;3.25;;;;;;;20.88;41.63;97601.88;5035846;28;20203;-63
2023/04/21 10:23:52;;;;;;;5.07;3.47;;;;;;;20.51;41.19;97534.56;5053082;28;20211;-63
2023/04/21 10:26:25;;;;;;;3.17;2.63;;;;;;;21.48;40.28;97663.53;5048068;28;20193;-63
2023/04/21 10:28:59;;;;;;;3.05;2.85;;;;;;;21.60;39.68;97672.53;5053000;28;20662;-63
2023/04/21 10:31:33;;;;;;;3.78;2.92;;;;;;;21.67;39.62;97678.69;5052900;28;20750;-63
2023/04/21 10:34:07;;;;;;;9.73;3.25;;;;;;;21.73;41.12;97670.03;5052891;28;20270;-63
2023/04/21 10:36:53;;;;;;;3.63;3.30;;;;;;;21.86;40.91;97666.66;5052813;28;20204;-63
2023/04/21 10:39:24;;;;;;;5.00;3.15;;;;;;;21.99;39.60;97677.28;5012953;28;20194;-63
2023/04/21 10:41:50;;;;;;;3.50;3.20;;;;;;;22.02;39.15;97661.09;5012968;28;20197;-64
2023/04/21 10:44:16;;;;;;;3.88;3.28;;;;;;;21.93;38.71;97606.94;5013012;28;20182;-64
2023/04/21 10:46:46;;;;;;;4.30;2.92;;;;;;;22.50;37.86;97684.66;5012975;28;20191;-63
2023/04/21 10:49:11;;;;;;;7.13;3.50;;;;;;;22.66;38.41;97686.16;5012892;28;20663;-63
2023/04/21 10:52:01;;;;;;;4.07;3.15;;;;;;;22.87;37.67;97678.09;5012888;28;20186;-64
2023/04/21 10:54:40;;;;;;;6.28;2.85;;;;;;;22.82;37.40;97648.84;5012855;28;20224;-63
2023/04/21 10:57:08;;;;;;;3.40;2.70;;;;;;;22.91;37.25;97621.28;5012464;28;20229;-63
2023/04/21 10:59:37;;;;;;;2.67;2.53;;;;;;;23.03;35.83;97636.31;5012828;28;20171;-63
2023/04/21 11:02:06;;;;;;;3.20;2.90;;;;;;;23.26;35.39;97657.06;4973513;28;20675;-63
2023/04/21 11:04:31;;;;;;;4.03;2.80;;;;;;;23.43;35.67;97671.50;4973578;28;20283;-63
2023/04/21 11:07:12;;;;;;;4.47;2.80;;;;;;;23.65;34.53;97686.13;4973523;28;20334;-63
2023/04/21 11:09:41;;;;;;;4.13;2.53;;;;;;;23.67;33.98;97672.50;4973437;28;20296;-63
2023/04/21 11:12:12;;;;;;;2.60;2.40;;;;;;;23.39;34.03;97607.72;4973572;28;20290;-63
2023/04/21 11:14:40;;;;;;;3.42;2.28;;;;;;;23.69;33.56;97653.81;4973540;28;20175;-64
2023/04/21 11:17:11;;;;;;;2.50;2.30;;;;;;;23.97;33.06;97680.81;5004128;28;20565;-63
2023/04/21 11:19:37;;;;;;;2.45;2.25;;;;;;;23.68;32.97;97631.84;5012457;28;20182;-63
2023/04/21 11:22:03;;;;;;;2.80;2.53;;;;;;;23.92;32.74;97641.78;5012370;28;20293;-63
2023/04/21 11:24:30;;;;;;;3.55;2.30;;;;;;;24.18;31.50;97664.69;5012293;28;20254;-63
2023/04/21 11:26:55;;;;;;;3.85;2.08;;;;;;;24.33;32.08;97673.19;5012234;28;20203;-63